createdAt,value
2018-09-19T00:02:14.723Z,99.90
2018-09-19T00:04:42.318Z,99.90
2018-09-19T00:07:09.883Z,99.90
2018-09-19T00:09:47.174Z,99.90
2018-09-19T00:12:14.811Z,99.90
2018-09-19T00:14:42.388Z,99.90
2018-09-19T00:17:13.524Z,99.90
2018-09-19T00:19:41.102Z,99.90
2018-09-19T00:22:11.714Z,99.90
2018-09-19T00:24:39.252Z,99.90
2018-09-19T00:27:08.172Z,99.90
2018-09-19T00:29:35.876Z,99.90
2018-09-19T00:32:10.658Z,99.90
2018-09-19T00:34:42.837Z,99.90
2018-09-19T00:37:10.967Z,99.90
2018-09-19T00:39:38.503Z,99.90
2018-09-19T00:42:08.086Z,99.90
2018-09-19T00:44:35.624Z,99.90
2018-09-19T00:47:03.160Z,99.90
2018-09-19T00:49:30.681Z,99.90
2018-09-19T00:51:59.274Z,99.90
2018-09-19T00:54:26.827Z,99.90
2018-09-19T00:56:54.390Z,99.90
2018-09-19T00:59:22.071Z,99.90
2018-09-19T01:01:49.654Z,99.90
2018-09-19T01:04:17.162Z,99.90
2018-09-19T01:06:45.151Z,99.90
2018-09-19T01:09:12.709Z,99.90
2018-09-19T01:11:40.312Z,99.90
2018-09-19T01:14:07.858Z,99.90
2018-09-19T01:16:35.377Z,99.90
2018-09-19T01:19:02.922Z,99.90
2018-09-19T01:21:30.430Z,99.90
2018-09-19T01:23:57.922Z,99.90
2018-09-19T01:26:25.409Z,99.90
2018-09-19T01:28:52.885Z,99.90
2018-09-19T01:31:20.615Z,99.90
2018-09-19T01:33:48.137Z,99.90
2018-09-19T01:36:15.607Z,99.90
2018-09-19T01:38:43.692Z,99.90
2018-09-19T01:41:11.185Z,99.90
2018-09-19T01:43:38.813Z,99.90
2018-09-19T01:46:06.290Z,99.90
2018-09-19T01:48:33.947Z,99.90
2018-09-19T01:51:05.101Z,99.90
2018-09-19T01:53:32.605Z,99.90
2018-09-19T01:56:00.116Z,99.90
2018-09-19T01:58:29.395Z,99.90
2018-09-19T02:00:57.084Z,99.90
2018-09-19T02:03:34.869Z,99.90
2018-09-19T02:06:02.539Z,99.90
2018-09-19T02:08:30.029Z,99.90
2018-09-19T02:10:57.554Z,99.90
2018-09-19T02:13:25.113Z,99.90
2018-09-19T02:15:56.714Z,99.90
2018-09-19T02:18:24.205Z,99.90
2018-09-19T02:20:51.801Z,99.90
2018-09-19T02:23:19.302Z,99.90
2018-09-19T02:25:49.964Z,99.90
2018-09-19T02:28:17.478Z,99.90
2018-09-19T02:30:46.044Z,99.90
2018-09-19T02:33:19.506Z,99.90
2018-09-19T02:35:47.186Z,99.90
2018-09-19T02:38:14.730Z,99.90
2018-09-19T02:40:42.269Z,99.90
2018-09-19T02:43:09.811Z,99.90
2018-09-19T02:45:37.320Z,99.90
2018-09-19T02:48:06.945Z,99.90
2018-09-19T02:50:34.766Z,99.90
2018-09-19T02:53:09.638Z,99.90
2018-09-19T02:55:37.253Z,99.90
2018-09-19T02:58:08.240Z,99.90
2018-09-19T03:00:35.794Z,99.90
2018-09-19T03:03:03.265Z,99.90
2018-09-19T03:05:31.833Z,99.90
2018-09-19T03:08:00.438Z,99.90
2018-09-19T03:10:27.914Z,99.90
2018-09-19T03:12:55.452Z,99.90
2018-09-19T03:15:23.394Z,99.90
2018-09-19T03:17:51.322Z,99.90
2018-09-19T03:20:18.762Z,99.90
2018-09-19T03:22:46.398Z,99.90
2018-09-19T03:25:13.882Z,99.90
2018-09-19T03:27:41.444Z,99.90
2018-09-19T03:30:09.038Z,99.90
2018-09-19T03:32:36.536Z,99.90
2018-09-19T03:35:04.094Z,99.90
2018-09-19T03:37:31.592Z,99.90
2018-09-19T03:39:59.093Z,99.90
2018-09-19T03:42:26.712Z,99.90
2018-09-19T03:44:54.230Z,99.90
2018-09-19T03:47:21.738Z,99.90
2018-09-19T03:49:49.261Z,99.90
2018-09-19T03:52:16.833Z,99.90
2018-09-19T03:54:45.019Z,99.90
2018-09-19T03:57:12.517Z,99.90
2018-09-19T03:59:40.175Z,99.90
2018-09-19T04:02:07.697Z,99.90
2018-09-19T04:04:35.148Z,99.90
2018-09-19T04:07:02.642Z,99.90
2018-09-19T04:09:30.214Z,99.90
2018-09-19T04:11:58.297Z,99.90
2018-09-19T04:14:26.032Z,99.90
2018-09-19T04:16:53.522Z,99.90
2018-09-19T04:19:21.018Z,99.90
2018-09-19T04:21:52.012Z,99.90
2018-09-19T04:24:19.491Z,99.90
2018-09-19T04:26:47.140Z,99.90
2018-09-19T04:29:15.025Z,99.90
2018-09-19T04:31:42.880Z,99.90
2018-09-19T04:34:10.341Z,99.90
2018-09-19T04:36:37.845Z,99.90
2018-09-19T04:39:07.275Z,99.90
2018-09-19T04:41:34.871Z,99.90
2018-09-19T04:44:02.363Z,99.90
2018-09-19T04:46:30.386Z,99.90
2018-09-19T04:48:58.038Z,99.90
2018-09-19T04:51:25.565Z,99.90
2018-09-19T04:53:53.081Z,99.90
2018-09-19T04:56:21.632Z,99.90
2018-09-19T04:58:49.149Z,99.90
2018-09-19T05:01:16.662Z,99.90
2018-09-19T05:03:44.617Z,99.90
2018-09-19T05:06:12.129Z,99.90
2018-09-19T05:08:39.686Z,99.90
2018-09-19T05:11:07.218Z,99.90
2018-09-19T05:13:34.737Z,99.90
2018-09-19T05:16:02.305Z,99.90
2018-09-19T05:18:29.780Z,99.90
2018-09-19T05:20:57.307Z,99.90
2018-09-19T05:23:24.874Z,99.90
2018-09-19T05:25:52.477Z,99.90
2018-09-19T05:28:20.126Z,99.90
2018-09-19T05:30:47.841Z,99.90
2018-09-19T05:33:15.921Z,99.90
2018-09-19T05:35:44.018Z,99.90
2018-09-19T05:38:11.497Z,99.90
2018-09-19T05:40:39.295Z,99.90
2018-09-19T05:43:06.821Z,99.90
2018-09-19T05:45:35.424Z,99.90
2018-09-19T05:48:03.213Z,99.90
2018-09-19T05:50:30.756Z,99.90
2018-09-19T05:52:58.243Z,99.90
2018-09-19T05:55:25.754Z,99.90
2018-09-19T05:57:53.233Z,99.90
2018-09-19T06:00:20.718Z,99.90
2018-09-19T06:02:48.495Z,99.90
2018-09-19T06:05:15.981Z,99.90
2018-09-19T06:07:44.003Z,99.90
2018-09-19T06:10:11.513Z,99.90
2018-09-19T06:12:39.501Z,99.90
2018-09-19T06:15:07.070Z,99.90
2018-09-19T06:17:34.625Z,99.90
2018-09-19T06:20:02.174Z,99.90
2018-09-19T06:22:29.686Z,99.90
2018-09-19T06:24:57.233Z,99.90
2018-09-19T06:27:24.702Z,99.90
2018-09-19T06:29:52.325Z,99.90
2018-09-19T06:32:19.802Z,99.90
2018-09-19T06:34:47.333Z,99.90
2018-09-19T06:37:14.846Z,99.90
2018-09-19T06:39:42.417Z,99.90
2018-09-19T06:42:09.964Z,99.90
2018-09-19T06:44:37.493Z,99.90
2018-09-19T06:47:05.032Z,99.90
2018-09-19T06:49:32.525Z,99.90
2018-09-19T06:52:00.252Z,99.90
2018-09-19T06:54:27.829Z,99.90
2018-09-19T06:56:55.355Z,99.90
2018-09-19T06:59:23.144Z,99.90
2018-09-19T07:01:50.647Z,99.90
2018-09-19T07:04:18.163Z,99.90
2018-09-19T07:06:46.189Z,99.90
2018-09-19T07:09:13.708Z,99.90
2018-09-19T07:11:41.197Z,99.90
2018-09-19T07:14:08.681Z,99.90
2018-09-19T07:16:36.188Z,99.90
2018-09-19T07:19:03.758Z,99.90
2018-09-19T07:21:31.233Z,99.90
2018-09-19T07:23:58.870Z,99.90
2018-09-19T07:26:26.326Z,99.90
2018-09-19T07:28:53.829Z,99.90
2018-09-19T07:31:21.302Z,99.90
2018-09-19T07:33:48.819Z,99.90
2018-09-19T07:36:16.335Z,99.90
2018-09-19T07:38:44.175Z,99.90
2018-09-19T07:41:12.110Z,99.90
2018-09-19T07:43:39.794Z,99.90
2018-09-19T07:46:07.398Z,99.90
2018-09-19T07:48:39.946Z,99.90
2018-09-19T07:51:17.626Z,99.90
2018-09-19T07:53:57.688Z,99.90
2018-09-19T07:56:25.770Z,99.90
2018-09-19T07:58:53.790Z,99.90
2018-09-19T08:01:21.312Z,99.90
2018-09-19T08:03:48.802Z,99.90
2018-09-19T08:06:16.313Z,99.90
2018-09-19T08:08:44.393Z,99.90
2018-09-19T08:11:11.899Z,99.90
2018-09-19T08:13:39.421Z,99.90
2018-09-19T08:16:08.926Z,99.90
2018-09-19T08:18:36.461Z,99.90
2018-09-19T08:21:04.009Z,99.90
2018-09-19T08:23:31.523Z,98.40
2018-09-19T08:25:59.165Z,98.50
2018-09-19T08:28:26.753Z,94.60
2018-09-19T08:30:54.293Z,90.60
2018-09-19T08:33:22.409Z,92.90
2018-09-19T08:35:49.875Z,91.90
2018-09-19T08:38:17.414Z,88.30
2018-09-19T08:40:45.317Z,83.90
2018-09-19T08:43:12.805Z,83.00
2018-09-19T08:45:40.469Z,73.50
2018-09-19T08:48:08.115Z,73.20
2018-09-19T08:50:35.765Z,72.40
2018-09-19T08:53:03.673Z,72.20
2018-09-19T08:55:31.301Z,65.30
2018-09-19T08:57:59.124Z,65.60
2018-09-19T09:00:26.598Z,68.30
2018-09-19T09:02:54.075Z,61.60
2018-09-19T09:05:21.618Z,63.10
2018-09-19T09:07:49.106Z,62.80
2018-09-19T09:10:16.622Z,60.60
2018-09-19T09:12:44.835Z,61.40
2018-09-19T09:15:12.718Z,64.10
2018-09-19T09:17:40.460Z,66.20
2018-09-19T09:20:08.084Z,63.30
2018-09-19T09:22:35.705Z,61.10
2018-09-19T09:25:03.239Z,62.60
2018-09-19T09:27:30.766Z,64.60
2018-09-19T09:29:58.268Z,67.10
2018-09-19T09:32:25.781Z,65.10
2018-09-19T09:34:53.284Z,59.30
2018-09-19T09:37:20.826Z,58.90
2018-09-19T09:39:48.317Z,58.40
2018-09-19T09:42:15.818Z,57.50
2018-09-19T09:44:43.312Z,56.30
2018-09-19T09:47:10.926Z,55.60
2018-09-19T09:49:38.414Z,54.30
2018-09-19T09:52:06.321Z,55.00
2018-09-19T09:54:34.086Z,55.10
2018-09-19T09:57:01.622Z,52.50
2018-09-19T09:59:29.116Z,51.90
2018-09-19T10:01:56.616Z,50.10
2018-09-19T10:04:24.114Z,50.90
2018-09-19T10:06:51.698Z,50.60
2018-09-19T10:09:19.913Z,47.70
2018-09-19T10:11:47.936Z,48.00
2018-09-19T10:14:15.430Z,45.10
2018-09-19T10:16:42.925Z,45.10
2018-09-19T10:19:10.442Z,45.30
2018-09-19T10:21:38.180Z,44.10
2018-09-19T10:24:05.779Z,43.20
2018-09-19T10:26:33.277Z,43.80
2018-09-19T10:29:00.950Z,43.50
2018-09-19T10:31:28.977Z,44.90
2018-09-19T10:33:56.461Z,43.20
2018-09-19T10:36:23.990Z,44.60
2018-09-19T10:38:51.520Z,45.00
2018-09-19T10:41:19.029Z,45.00
2018-09-19T10:43:46.630Z,44.50
2018-09-19T10:46:14.294Z,43.90
2018-09-19T10:48:41.877Z,44.70
2018-09-19T10:51:09.394Z,42.40
2018-09-19T10:53:37.458Z,41.50
2018-09-19T10:56:05.169Z,39.80
2018-09-19T10:58:32.724Z,42.50
2018-09-19T11:01:00.298Z,42.30
2018-09-19T11:03:27.854Z,39.40
2018-09-19T11:05:55.324Z,40.40
2018-09-19T11:08:22.810Z,40.50
2018-09-19T11:10:50.279Z,39.20
2018-09-19T11:13:17.823Z,41.90
2018-09-19T11:15:45.790Z,38.80
2018-09-19T11:18:13.525Z,39.70
2018-09-19T11:20:41.110Z,41.00
2018-09-19T11:23:08.653Z,41.10
2018-09-19T11:25:36.186Z,39.40
2018-09-19T11:28:04.146Z,39.70
2018-09-19T11:30:31.709Z,39.80
2018-09-19T11:32:59.212Z,39.20
2018-09-19T11:35:26.720Z,38.50
2018-09-19T11:37:54.210Z,38.70
2018-09-19T11:40:21.745Z,39.30
2018-09-19T11:42:49.750Z,39.00
2018-09-19T11:45:17.239Z,38.10
2018-09-19T11:47:45.568Z,40.30
2018-09-19T11:50:13.111Z,37.40
2018-09-19T11:52:40.783Z,37.70
2018-09-19T11:55:08.349Z,38.60
2018-09-19T11:57:36.116Z,40.60
2018-09-19T12:00:03.930Z,37.30
2018-09-19T12:02:31.921Z,36.60
2018-09-19T12:04:59.435Z,34.70
2018-09-19T12:07:27.012Z,34.70
2018-09-19T12:09:54.561Z,34.60
2018-09-19T12:12:22.103Z,34.90
2018-09-19T12:14:49.921Z,33.80
2018-09-19T12:17:17.457Z,35.10
2018-09-19T12:19:45.189Z,37.40
2018-09-19T12:22:12.750Z,34.40
2018-09-19T12:24:40.485Z,35.80
2018-09-19T12:27:08.042Z,36.00
2018-09-19T12:29:35.674Z,34.40
2018-09-19T12:32:03.216Z,34.90
2018-09-19T12:34:30.992Z,35.40
2018-09-19T12:36:58.539Z,35.20
2018-09-19T12:39:26.152Z,36.00
2018-09-19T12:41:53.673Z,33.30
2018-09-19T12:44:21.274Z,36.10
2018-09-19T12:46:48.861Z,35.80
2018-09-19T12:49:16.501Z,35.60
2018-09-19T12:51:43.998Z,34.10
2018-09-19T12:54:12.198Z,34.30
2018-09-19T12:56:39.817Z,35.10
2018-09-19T12:59:07.361Z,36.20
2018-09-19T13:01:34.955Z,34.60
2018-09-19T13:04:02.521Z,35.40
2018-09-19T13:06:30.298Z,35.90
2018-09-19T13:08:57.816Z,37.70
2018-09-19T13:11:25.393Z,36.70
2018-09-19T13:13:53.154Z,36.90
2018-09-19T13:16:20.922Z,37.80
2018-09-19T13:18:48.595Z,38.80
2018-09-19T13:21:16.633Z,38.30
2018-09-19T13:23:44.742Z,36.30
2018-09-19T13:26:12.305Z,37.00
2018-09-19T13:28:40.000Z,38.60
2018-09-19T13:31:07.683Z,37.50
2018-09-19T13:33:35.277Z,37.50
2018-09-19T13:36:02.869Z,36.10
2018-09-19T13:38:30.413Z,36.20
2018-09-19T13:40:57.949Z,36.40
2018-09-19T13:43:25.491Z,36.70
2018-09-19T13:45:53.050Z,36.90
2018-09-19T13:48:20.553Z,38.30
2018-09-19T13:51:10.596Z,37.80
2018-09-19T13:53:38.174Z,36.80
2018-09-19T13:56:05.722Z,37.50
2018-09-19T13:58:33.480Z,39.00
2018-09-19T14:01:00.989Z,39.90
2018-09-19T14:03:28.607Z,37.10
2018-09-19T14:05:56.266Z,37.70
2018-09-19T14:08:23.877Z,38.00
2018-09-19T14:10:51.417Z,36.40
2018-09-19T14:13:18.910Z,37.10
2018-09-19T14:15:46.994Z,38.30
2018-09-19T14:18:14.461Z,38.10
2018-09-19T14:20:47.166Z,39.20
2018-09-19T14:23:14.801Z,37.50
2018-09-19T14:25:42.478Z,37.50
2018-09-19T14:28:11.124Z,38.80
2018-09-19T14:30:41.933Z,38.40
2018-09-19T14:33:09.497Z,38.10
2018-09-19T14:35:37.060Z,38.60
2018-09-19T14:38:22.120Z,38.70
2018-09-19T14:40:54.918Z,39.60
2018-09-19T14:43:22.765Z,40.00
2018-09-19T14:46:11.065Z,40.00
2018-09-19T14:48:38.583Z,40.40
2018-09-19T14:51:10.781Z,40.70
2018-09-19T14:53:42.909Z,40.50
2018-09-19T14:56:12.922Z,41.20
2018-09-19T14:58:41.548Z,41.00
2018-09-19T15:01:11.608Z,41.60
2018-09-19T15:03:49.161Z,42.10
2018-09-19T15:06:25.735Z,42.40
2018-09-19T15:08:57.204Z,43.30
2018-09-19T15:11:39.656Z,42.70
2018-09-19T15:14:24.619Z,42.60
2018-09-19T15:16:59.352Z,42.10
2018-09-19T15:19:37.598Z,43.00
2018-09-19T15:22:19.637Z,43.20
2018-09-19T15:24:53.339Z,43.60
2018-09-19T15:27:31.825Z,43.50
2018-09-19T15:30:01.402Z,43.60
2018-09-19T15:32:32.988Z,44.10
2018-09-19T15:35:07.031Z,44.10
2018-09-19T15:37:37.071Z,45.10
2018-09-19T15:40:07.541Z,45.50
2018-09-19T15:42:38.466Z,45.10
2018-09-19T15:45:09.253Z,45.70
2018-09-19T15:47:40.128Z,45.30
2018-09-19T15:50:12.149Z,45.20
2018-09-19T15:52:43.099Z,45.00
2018-09-19T15:55:13.445Z,45.50
2018-09-19T15:57:45.037Z,45.50
2018-09-19T16:00:20.916Z,45.80
2018-09-19T16:02:51.757Z,46.10
2018-09-19T16:05:21.779Z,46.40
2018-09-19T16:07:51.488Z,46.60
2018-09-19T16:10:21.514Z,46.60
2018-09-19T16:12:51.792Z,47.50
2018-09-19T16:15:24.550Z,47.30
2018-09-19T16:17:58.314Z,47.60
2018-09-19T16:20:29.694Z,48.10
2018-09-19T16:23:01.212Z,48.40
2018-09-19T16:25:31.418Z,48.50
2018-09-19T16:27:59.197Z,48.80
2018-09-19T16:30:26.742Z,49.40
2018-09-19T16:32:55.254Z,49.60
2018-09-19T16:35:22.793Z,49.70
2018-09-19T16:37:50.374Z,49.80
2018-09-19T16:40:17.903Z,50.20
2018-09-19T16:42:46.214Z,50.60
2018-09-19T16:45:13.726Z,51.00
2018-09-19T16:47:41.233Z,51.10
2018-09-19T16:50:08.794Z,51.40
2018-09-19T16:52:36.337Z,52.00
2018-09-19T16:55:04.060Z,52.90
2018-09-19T16:57:31.741Z,53.90
2018-09-19T16:59:59.309Z,55.10
2018-09-19T17:02:26.954Z,56.10
2018-09-19T17:04:54.590Z,57.00
2018-09-19T17:07:22.110Z,57.60
2018-09-19T17:09:49.714Z,58.20
2018-09-19T17:12:17.333Z,58.80
2018-09-19T17:14:45.328Z,59.60
2018-09-19T17:17:12.849Z,59.30
2018-09-19T17:19:40.404Z,60.10
2018-09-19T17:22:07.981Z,61.20
2018-09-19T17:24:35.798Z,61.70
2018-09-19T17:27:03.359Z,61.80
2018-09-19T17:29:30.854Z,62.40
2018-09-19T17:31:58.395Z,63.30
2018-09-19T17:34:26.091Z,64.20
2018-09-19T17:36:54.620Z,64.70
2018-09-19T17:39:22.194Z,65.20
2018-09-19T17:41:49.701Z,65.90
2018-09-19T17:44:17.286Z,66.40
2018-09-19T17:46:45.402Z,66.80
2018-09-19T17:49:13.054Z,67.70
2018-09-19T17:51:40.729Z,68.40
2018-09-19T17:54:08.449Z,69.10
2018-09-19T17:56:36.322Z,70.10
2018-09-19T17:59:03.879Z,70.70
2018-09-19T18:01:31.570Z,71.20
2018-09-19T18:03:59.308Z,72.10
2018-09-19T18:06:26.842Z,72.80
2018-09-19T18:08:54.670Z,73.40
2018-09-19T18:11:22.306Z,73.90
2018-09-19T18:13:49.823Z,74.80
2018-09-19T18:16:17.387Z,75.60
2018-09-19T18:18:45.439Z,76.90
2018-09-19T18:21:13.009Z,78.20
2018-09-19T18:23:41.253Z,80.50
2018-09-19T18:26:09.015Z,81.10
2018-09-19T18:28:36.817Z,82.50
2018-09-19T18:31:04.502Z,84.20
2018-09-19T18:33:32.066Z,86.00
2018-09-19T18:36:00.282Z,87.90
2018-09-19T18:38:28.106Z,89.90
2018-09-19T18:40:55.782Z,90.70
2018-09-19T18:43:23.437Z,91.60
2018-09-19T18:45:51.031Z,92.10
2018-09-19T18:48:18.613Z,92.40
2018-09-19T18:50:47.261Z,92.60
2018-09-19T18:53:14.794Z,93.10
2018-09-19T18:55:42.415Z,93.50
2018-09-19T18:58:10.069Z,93.80
2018-09-19T19:00:37.990Z,94.40
2018-09-19T19:03:06.157Z,94.90
2018-09-19T19:05:33.679Z,95.70
2018-09-19T19:08:01.418Z,95.80
2018-09-19T19:10:29.158Z,96.10
2018-09-19T19:12:56.755Z,96.60
2018-09-19T19:15:24.301Z,97.00
2018-09-19T19:17:51.930Z,97.40
2018-09-19T19:20:19.607Z,97.60
2018-09-19T19:22:47.637Z,98.10
2018-09-19T19:25:15.290Z,98.40
2018-09-19T19:27:44.069Z,98.80
2018-09-19T19:30:12.943Z,99.30
2018-09-19T19:32:40.659Z,99.80
2018-09-19T19:35:08.354Z,99.90
2018-09-19T19:37:36.527Z,99.90
2018-09-19T19:40:04.178Z,99.90
2018-09-19T19:42:32.033Z,99.90
2018-09-19T19:44:59.667Z,99.90
2018-09-19T19:47:27.350Z,99.90
2018-09-19T19:49:55.006Z,99.90
2018-09-19T19:52:22.563Z,99.90
2018-09-19T19:54:50.071Z,99.90
2018-09-19T19:57:17.626Z,99.90
2018-09-19T19:59:45.934Z,99.90
2018-09-19T20:02:13.526Z,99.90
2018-09-19T20:04:41.197Z,99.90
2018-09-19T20:07:08.718Z,99.90
2018-09-19T20:09:36.451Z,99.90
2018-09-19T20:12:04.095Z,99.90
2018-09-19T20:14:31.767Z,99.90
2018-09-19T20:16:59.320Z,99.90
2018-09-19T20:19:27.974Z,99.90
2018-09-19T20:21:55.546Z,99.90
2018-09-19T20:24:23.130Z,99.90
2018-09-19T20:26:50.695Z,99.90
2018-09-19T20:29:18.200Z,99.90
2018-09-19T20:31:46.412Z,99.90
2018-09-19T20:34:13.985Z,99.90
2018-09-19T20:36:41.713Z,99.90
2018-09-19T20:39:10.166Z,99.90
2018-09-19T20:41:37.822Z,99.90
2018-09-19T20:44:05.448Z,99.90
2018-09-19T20:46:33.014Z,99.90
2018-09-19T20:49:00.584Z,99.90
2018-09-19T20:51:28.131Z,99.90
2018-09-19T20:53:55.731Z,99.90
2018-09-19T20:56:23.214Z,99.90
2018-09-19T20:58:51.798Z,99.90
2018-09-19T21:01:19.319Z,99.90
2018-09-19T21:03:48.722Z,99.90
2018-09-19T21:06:16.305Z,99.90
2018-09-19T21:08:43.805Z,99.90
2018-09-19T21:11:12.215Z,99.90
2018-09-19T21:13:39.932Z,99.90
2018-09-19T21:16:07.626Z,99.90
2018-09-19T21:18:35.294Z,99.90
2018-09-19T21:21:02.809Z,99.90
2018-09-19T21:23:33.472Z,99.90
2018-09-19T21:26:03.122Z,99.90
2018-09-19T21:28:30.847Z,99.90
2018-09-19T21:30:58.350Z,99.90
2018-09-19T21:33:25.949Z,99.90
2018-09-19T21:35:53.478Z,99.90
2018-09-19T21:38:21.482Z,99.90
2018-09-19T21:40:48.956Z,99.90
2018-09-19T21:43:16.585Z,99.90
2018-09-19T21:45:44.117Z,99.90
2018-09-19T21:48:11.665Z,99.90
2018-09-19T21:50:39.275Z,99.90
2018-09-19T21:53:06.838Z,99.90
2018-09-19T21:55:34.328Z,99.90
2018-09-19T21:58:01.857Z,99.90
2018-09-19T22:00:29.430Z,99.90
2018-09-19T22:02:57.107Z,99.90
2018-09-19T22:05:24.638Z,99.90
2018-09-19T22:07:52.374Z,99.90
2018-09-19T22:10:19.914Z,99.90
2018-09-19T22:12:47.844Z,99.90
2018-09-19T22:15:15.390Z,99.90
2018-09-19T22:17:42.908Z,99.90
2018-09-19T22:20:10.472Z,99.90
2018-09-19T22:22:38.054Z,99.90
2018-09-19T22:25:05.594Z,99.90
2018-09-19T22:27:33.241Z,99.90
2018-09-19T22:30:00.717Z,99.90
2018-09-19T22:32:28.302Z,99.90
2018-09-19T22:34:55.883Z,99.90
2018-09-19T22:37:23.443Z,99.90
2018-09-19T22:39:51.091Z,99.90
2018-09-19T22:42:18.653Z,99.90
2018-09-19T22:44:47.108Z,99.90
2018-09-19T22:47:14.734Z,99.90
2018-09-19T22:49:42.438Z,99.90
2018-09-19T22:52:10.274Z,99.90
2018-09-19T22:54:38.051Z,99.90
2018-09-19T22:57:05.573Z,99.90
2018-09-19T22:59:33.078Z,99.90
2018-09-19T23:02:00.675Z,99.90
2018-09-19T23:04:28.193Z,99.90
2018-09-19T23:06:55.754Z,99.90
2018-09-19T23:09:23.276Z,99.90
2018-09-19T23:11:50.781Z,99.90
2018-09-19T23:14:18.391Z,99.90
2018-09-19T23:16:46.917Z,99.90
2018-09-19T23:19:14.499Z,99.90
2018-09-19T23:21:42.056Z,99.90
2018-09-19T23:24:11.764Z,99.90
2018-09-19T23:26:39.458Z,99.90
2018-09-19T23:29:07.165Z,99.90
2018-09-19T23:31:34.770Z,99.90
2018-09-19T23:34:02.397Z,99.90
2018-09-19T23:36:29.969Z,99.90
2018-09-19T23:38:57.650Z,99.90
2018-09-19T23:41:25.175Z,99.90
2018-09-19T23:43:52.694Z,99.90
2018-09-19T23:46:20.259Z,99.90
2018-09-19T23:48:47.921Z,99.90
2018-09-19T23:51:15.529Z,99.90
2018-09-19T23:53:43.030Z,99.90
2018-09-19T23:56:10.732Z,99.90
2018-09-19T23:58:38.253Z,99.90
